sensor_id;sensor_type;location;lat;lon;timestamp;P1;durP1;ratioP1;P2;durP2;ratioP2
72095;SDS011;59968;51.084;16.748;2022-08-19T00:01:35;13.10;;;9.70;;
72095;SDS011;59968;51.084;16.748;2022-08-19T00:04:08;13.30;;;9.30;;
72095;SDS011;59968;51.084;16.748;2022-08-19T00:06:38;13.00;;;9.40;;
72095;SDS011;59968;51.084;16.748;2022-08-19T00:09:07;12.20;;;9.30;;
72095;SDS011;59968;51.084;16.748;2022-08-19T00:11:37;11.50;;;8.90;;
72095;SDS011;59968;51.084;16.748;2022-08-19T00:14:05;13.30;;;9.70;;
72095;SDS011;59968;51.084;16.748;2022-08-19T00:16:35;12.60;;;9.30;;
72095;SDS011;59968;51.084;16.748;2022-08-19T00:19:05;13.50;;;9.50;;
72095;SDS011;59968;51.084;16.748;2022-08-19T00:21:32;12.40;;;9.30;;
72095;SDS011;59968;51.084;16.748;2022-08-19T00:24:09;14.80;;;9.80;;
72095;SDS011;59968;51.084;16.748;2022-08-19T00:26:38;14.30;;;10.10;;
72095;SDS011;59968;51.084;16.748;2022-08-19T00:29:07;14.60;;;10.40;;
72095;SDS011;59968;51.084;16.748;2022-08-19T00:31:36;12.50;;;10.10;;
72095;SDS011;59968;51.084;16.748;2022-08-19T00:34:03;12.10;;;9.50;;
72095;SDS011;59968;51.084;16.748;2022-08-19T00:36:30;12.90;;;9.90;;
72095;SDS011;59968;51.084;16.748;2022-08-19T00:39:01;13.50;;;9.70;;
72095;SDS011;59968;51.084;16.748;2022-08-19T00:41:29;12.70;;;9.50;;
72095;SDS011;59968;51.084;16.748;2022-08-19T00:44:00;11.70;;;8.70;;
72095;SDS011;59968;51.084;16.748;2022-08-19T00:46:34;11.80;;;8.70;;
72095;SDS011;59968;51.084;16.748;2022-08-19T00:49:05;13.40;;;9.70;;
72095;SDS011;59968;51.084;16.748;2022-08-19T00:51:40;15.30;;;10.10;;
72095;SDS011;59968;51.084;16.748;2022-08-19T00:54:09;12.00;;;9.90;;
72095;SDS011;59968;51.084;16.748;2022-08-19T00:56:36;12.40;;;8.00;;
72095;SDS011;59968;51.084;16.748;2022-08-19T00:59:04;11.80;;;8.70;;
72095;SDS011;59968;51.084;16.748;2022-08-19T01:01:36;11.10;;;8.50;;
72095;SDS011;59968;51.084;16.748;2022-08-19T01:04:08;14.20;;;9.80;;
72095;SDS011;59968;51.084;16.748;2022-08-19T01:06:36;12.70;;;9.20;;
72095;SDS011;59968;51.084;16.748;2022-08-19T01:09:05;14.10;;;9.70;;
72095;SDS011;59968;51.084;16.748;2022-08-19T01:11:34;15.70;;;10.00;;
72095;SDS011;59968;51.084;16.748;2022-08-19T01:14:04;15.60;;;10.70;;
72095;SDS011;59968;51.084;16.748;2022-08-19T01:16:33;16.30;;;10.50;;
72095;SDS011;59968;51.084;16.748;2022-08-19T01:19:01;12.30;;;9.60;;
72095;SDS011;59968;51.084;16.748;2022-08-19T01:21:31;14.70;;;10.30;;
72095;SDS011;59968;51.084;16.748;2022-08-19T01:24:12;16.10;;;10.60;;
72095;SDS011;59968;51.084;16.748;2022-08-19T01:26:40;15.20;;;10.20;;
72095;SDS011;59968;51.084;16.748;2022-08-19T01:29:10;14.20;;;10.80;;
72095;SDS011;59968;51.084;16.748;2022-08-19T01:31:38;14.20;;;10.60;;
72095;SDS011;59968;51.084;16.748;2022-08-19T01:34:06;13.50;;;9.70;;
72095;SDS011;59968;51.084;16.748;2022-08-19T01:36:38;15.20;;;10.50;;
72095;SDS011;59968;51.084;16.748;2022-08-19T01:39:10;15.40;;;10.40;;
72095;SDS011;59968;51.084;16.748;2022-08-19T01:41:40;16.10;;;9.50;;
72095;SDS011;59968;51.084;16.748;2022-08-19T01:44:08;14.90;;;10.30;;
72095;SDS011;59968;51.084;16.748;2022-08-19T01:46:46;13.10;;;9.70;;
72095;SDS011;59968;51.084;16.748;2022-08-19T01:49:15;12.90;;;10.00;;
72095;SDS011;59968;51.084;16.748;2022-08-19T01:51:47;13.90;;;9.20;;
72095;SDS011;59968;51.084;16.748;2022-08-19T01:54:16;12.40;;;9.50;;
72095;SDS011;59968;51.084;16.748;2022-08-19T01:56:59;16.40;;;9.90;;
72095;SDS011;59968;51.084;16.748;2022-08-19T01:59:29;13.30;;;9.70;;
72095;SDS011;59968;51.084;16.748;2022-08-19T02:01:58;12.40;;;10.00;;
72095;SDS011;59968;51.084;16.748;2022-08-19T02:04:25;12.60;;;9.90;;
72095;SDS011;59968;51.084;16.748;2022-08-19T02:06:53;15.40;;;9.80;;
72095;SDS011;59968;51.084;16.748;2022-08-19T02:09:20;14.00;;;10.10;;
72095;SDS011;59968;51.084;16.748;2022-08-19T02:11:47;13.10;;;9.30;;
72095;SDS011;59968;51.084;16.748;2022-08-19T02:14:14;12.80;;;9.10;;
72095;SDS011;59968;51.084;16.748;2022-08-19T02:16:43;13.80;;;9.80;;
72095;SDS011;59968;51.084;16.748;2022-08-19T02:19:09;12.80;;;9.60;;
72095;SDS011;59968;51.084;16.748;2022-08-19T02:21:36;14.20;;;10.00;;
72095;SDS011;59968;51.084;16.748;2022-08-19T02:24:04;17.00;;;9.90;;
72095;SDS011;59968;51.084;16.748;2022-08-19T02:26:32;13.90;;;10.30;;
72095;SDS011;59968;51.084;16.748;2022-08-19T02:29:02;15.30;;;9.50;;
72095;SDS011;59968;51.084;16.748;2022-08-19T02:31:30;13.80;;;10.20;;
72095;SDS011;59968;51.084;16.748;2022-08-19T02:33:58;13.70;;;9.70;;
72095;SDS011;59968;51.084;16.748;2022-08-19T02:36:25;15.40;;;10.70;;
72095;SDS011;59968;51.084;16.748;2022-08-19T02:38:53;13.30;;;9.30;;
72095;SDS011;59968;51.084;16.748;2022-08-19T02:41:22;15.20;;;10.10;;
72095;SDS011;59968;51.084;16.748;2022-08-19T02:43:56;13.80;;;10.60;;
72095;SDS011;59968;51.084;16.748;2022-08-19T02:46:47;12.90;;;10.00;;
72095;SDS011;59968;51.084;16.748;2022-08-19T02:49:18;12.60;;;9.70;;
72095;SDS011;59968;51.084;16.748;2022-08-19T02:51:46;13.50;;;9.60;;
72095;SDS011;59968;51.084;16.748;2022-08-19T02:54:13;13.90;;;9.90;;
72095;SDS011;59968;51.084;16.748;2022-08-19T02:56:41;11.90;;;9.50;;
72095;SDS011;59968;51.084;16.748;2022-08-19T02:59:10;13.20;;;9.60;;
72095;SDS011;59968;51.084;16.748;2022-08-19T03:01:38;12.30;;;9.50;;
72095;SDS011;59968;51.084;16.748;2022-08-19T03:04:07;13.70;;;9.90;;
72095;SDS011;59968;51.084;16.748;2022-08-19T03:06:37;13.90;;;10.10;;
72095;SDS011;59968;51.084;16.748;2022-08-19T03:09:05;12.60;;;9.20;;
72095;SDS011;59968;51.084;16.748;2022-08-19T03:11:33;14.50;;;9.80;;
72095;SDS011;59968;51.084;16.748;2022-08-19T03:14:00;15.10;;;10.40;;
72095;SDS011;59968;51.084;16.748;2022-08-19T03:16:30;12.30;;;9.50;;
72095;SDS011;59968;51.084;16.748;2022-08-19T03:19:00;13.00;;;8.80;;
72095;SDS011;59968;51.084;16.748;2022-08-19T03:21:29;12.30;;;9.30;;
72095;SDS011;59968;51.084;16.748;2022-08-19T03:24:01;13.40;;;9.90;;
72095;SDS011;59968;51.084;16.748;2022-08-19T03:26:31;14.60;;;10.60;;
72095;SDS011;59968;51.084;16.748;2022-08-19T03:29:00;14.00;;;9.60;;
72095;SDS011;59968;51.084;16.748;2022-08-19T03:31:32;14.90;;;9.70;;
72095;SDS011;59968;51.084;16.748;2022-08-19T03:34:23;12.00;;;9.20;;
72095;SDS011;59968;51.084;16.748;2022-08-19T03:36:57;12.70;;;9.20;;
72095;SDS011;59968;51.084;16.748;2022-08-19T03:39:29;13.40;;;9.40;;
72095;SDS011;59968;51.084;16.748;2022-08-19T03:41:57;16.60;;;10.10;;
72095;SDS011;59968;51.084;16.748;2022-08-19T03:44:46;13.10;;;9.80;;
72095;SDS011;59968;51.084;16.748;2022-08-19T03:47:13;12.80;;;10.10;;
72095;SDS011;59968;51.084;16.748;2022-08-19T03:49:43;14.00;;;10.60;;
72095;SDS011;59968;51.084;16.748;2022-08-19T03:52:11;16.00;;;10.90;;
72095;SDS011;59968;51.084;16.748;2022-08-19T03:54:38;16.80;;;10.10;;
72095;SDS011;59968;51.084;16.748;2022-08-19T03:57:05;14.30;;;10.50;;
72095;SDS011;59968;51.084;16.748;2022-08-19T03:59:37;12.90;;;9.10;;
72095;SDS011;59968;51.084;16.748;2022-08-19T04:02:09;15.40;;;10.90;;
72095;SDS011;59968;51.084;16.748;2022-08-19T04:04:38;14.70;;;9.80;;
72095;SDS011;59968;51.084;16.748;2022-08-19T04:07:08;14.60;;;10.90;;
72095;SDS011;59968;51.084;16.748;2022-08-19T04:09:36;13.20;;;9.40;;
72095;SDS011;59968;51.084;16.748;2022-08-19T04:12:04;13.30;;;9.90;;
72095;SDS011;59968;51.084;16.748;2022-08-19T04:14:32;13.80;;;10.70;;
72095;SDS011;59968;51.084;16.748;2022-08-19T04:17:00;13.40;;;10.70;;
72095;SDS011;59968;51.084;16.748;2022-08-19T04:19:31;15.70;;;10.20;;
72095;SDS011;59968;51.084;16.748;2022-08-19T04:22:00;14.40;;;10.00;;
72095;SDS011;59968;51.084;16.748;2022-08-19T04:24:28;14.00;;;10.10;;
72095;SDS011;59968;51.084;16.748;2022-08-19T04:26:55;16.80;;;11.00;;
72095;SDS011;59968;51.084;16.748;2022-08-19T04:29:23;15.00;;;11.10;;
72095;SDS011;59968;51.084;16.748;2022-08-19T04:31:53;19.00;;;11.60;;
72095;SDS011;59968;51.084;16.748;2022-08-19T04:34:23;16.00;;;11.50;;
72095;SDS011;59968;51.084;16.748;2022-08-19T04:36:53;18.30;;;10.70;;
72095;SDS011;59968;51.084;16.748;2022-08-19T04:39:23;14.00;;;10.50;;
72095;SDS011;59968;51.084;16.748;2022-08-19T04:42:15;15.30;;;10.40;;
72095;SDS011;59968;51.084;16.748;2022-08-19T04:45:03;15.10;;;10.50;;
72095;SDS011;59968;51.084;16.748;2022-08-19T04:47:39;17.70;;;11.10;;
72095;SDS011;59968;51.084;16.748;2022-08-19T04:50:25;13.90;;;11.10;;
72095;SDS011;59968;51.084;16.748;2022-08-19T04:52:53;15.60;;;11.30;;
72095;SDS011;59968;51.084;16.748;2022-08-19T04:55:22;16.10;;;11.20;;
72095;SDS011;59968;51.084;16.748;2022-08-19T04:57:52;18.60;;;10.90;;
72095;SDS011;59968;51.084;16.748;2022-08-19T05:00:20;16.50;;;10.60;;
72095;SDS011;59968;51.084;16.748;2022-08-19T05:02:50;16.40;;;11.10;;
72095;SDS011;59968;51.084;16.748;2022-08-19T05:05:18;15.30;;;10.80;;
72095;SDS011;59968;51.084;16.748;2022-08-19T05:07:46;14.30;;;11.30;;
72095;SDS011;59968;51.084;16.748;2022-08-19T05:10:13;17.40;;;11.80;;
72095;SDS011;59968;51.084;16.748;2022-08-19T05:12:40;16.40;;;11.10;;
72095;SDS011;59968;51.084;16.748;2022-08-19T05:15:07;17.30;;;12.00;;
72095;SDS011;59968;51.084;16.748;2022-08-19T05:17:35;16.00;;;11.80;;
72095;SDS011;59968;51.084;16.748;2022-08-19T05:20:06;17.20;;;11.70;;
72095;SDS011;59968;51.084;16.748;2022-08-19T05:22:52;16.70;;;11.70;;
72095;SDS011;59968;51.084;16.748;2022-08-19T05:25:20;16.80;;;11.30;;
72095;SDS011;59968;51.084;16.748;2022-08-19T05:27:48;15.30;;;10.90;;
72095;SDS011;59968;51.084;16.748;2022-08-19T05:30:16;18.30;;;11.90;;
72095;SDS011;59968;51.084;16.748;2022-08-19T05:32:43;15.40;;;11.70;;
72095;SDS011;59968;51.084;16.748;2022-08-19T05:35:10;17.60;;;11.30;;
72095;SDS011;59968;51.084;16.748;2022-08-19T05:37:38;18.20;;;11.60;;
72095;SDS011;59968;51.084;16.748;2022-08-19T05:40:06;15.50;;;12.30;;
72095;SDS011;59968;51.084;16.748;2022-08-19T05:42:35;16.50;;;11.80;;
72095;SDS011;59968;51.084;16.748;2022-08-19T05:45:02;18.20;;;11.70;;
72095;SDS011;59968;51.084;16.748;2022-08-19T05:47:31;17.80;;;11.30;;
72095;SDS011;59968;51.084;16.748;2022-08-19T05:49:58;15.80;;;10.90;;
72095;SDS011;59968;51.084;16.748;2022-08-19T05:52:28;18.20;;;12.10;;
72095;SDS011;59968;51.084;16.748;2022-08-19T05:54:56;15.00;;;11.20;;
72095;SDS011;59968;51.084;16.748;2022-08-19T05:57:23;14.10;;;10.00;;
72095;SDS011;59968;51.084;16.748;2022-08-19T05:59:51;17.40;;;11.80;;
72095;SDS011;59968;51.084;16.748;2022-08-19T06:02:25;18.70;;;11.60;;
72095;SDS011;59968;51.084;16.748;2022-08-19T06:04:53;15.90;;;11.60;;
72095;SDS011;59968;51.084;16.748;2022-08-19T06:07:20;16.10;;;11.40;;
72095;SDS011;59968;51.084;16.748;2022-08-19T06:09:48;16.40;;;10.80;;
72095;SDS011;59968;51.084;16.748;2022-08-19T06:12:30;16.10;;;11.90;;
72095;SDS011;59968;51.084;16.748;2022-08-19T06:15:03;17.00;;;10.90;;
72095;SDS011;59968;51.084;16.748;2022-08-19T06:17:34;17.30;;;11.30;;
72095;SDS011;59968;51.084;16.748;2022-08-19T06:20:06;15.90;;;11.50;;
72095;SDS011;59968;51.084;16.748;2022-08-19T06:22:39;16.70;;;11.70;;
72095;SDS011;59968;51.084;16.748;2022-08-19T06:25:11;14.30;;;11.60;;
72095;SDS011;59968;51.084;16.748;2022-08-19T06:27:39;14.70;;;11.20;;
72095;SDS011;59968;51.084;16.748;2022-08-19T06:30:27;12.60;;;10.40;;
72095;SDS011;59968;51.084;16.748;2022-08-19T06:32:54;13.70;;;10.60;;
72095;SDS011;59968;51.084;16.748;2022-08-19T06:35:22;15.60;;;10.20;;
72095;SDS011;59968;51.084;16.748;2022-08-19T06:37:49;13.60;;;10.00;;
72095;SDS011;59968;51.084;16.748;2022-08-19T06:40:16;13.00;;;9.60;;
72095;SDS011;59968;51.084;16.748;2022-08-19T06:42:43;16.10;;;10.10;;
72095;SDS011;59968;51.084;16.748;2022-08-19T06:45:22;13.70;;;10.40;;
72095;SDS011;59968;51.084;16.748;2022-08-19T06:47:51;14.00;;;10.40;;
72095;SDS011;59968;51.084;16.748;2022-08-19T06:50:21;12.90;;;9.70;;
72095;SDS011;59968;51.084;16.748;2022-08-19T06:52:51;15.00;;;9.20;;
72095;SDS011;59968;51.084;16.748;2022-08-19T06:55:19;11.30;;;8.20;;
72095;SDS011;59968;51.084;16.748;2022-08-19T06:57:47;10.70;;;7.80;;
72095;SDS011;59968;51.084;16.748;2022-08-19T07:00:15;11.30;;;7.90;;
72095;SDS011;59968;51.084;16.748;2022-08-19T07:02:42;10.40;;;7.60;;
72095;SDS011;59968;51.084;16.748;2022-08-19T07:05:22;11.30;;;7.10;;
72095;SDS011;59968;51.084;16.748;2022-08-19T07:07:49;9.80;;;6.60;;
72095;SDS011;59968;51.084;16.748;2022-08-19T07:10:17;10.70;;;6.70;;
72095;SDS011;59968;51.084;16.748;2022-08-19T07:12:46;10.90;;;7.50;;
72095;SDS011;59968;51.084;16.748;2022-08-19T07:15:15;10.60;;;7.60;;
72095;SDS011;59968;51.084;16.748;2022-08-19T07:17:45;11.20;;;7.70;;
72095;SDS011;59968;51.084;16.748;2022-08-19T07:20:18;11.20;;;7.90;;
72095;SDS011;59968;51.084;16.748;2022-08-19T07:22:46;15.30;;;8.30;;
72095;SDS011;59968;51.084;16.748;2022-08-19T07:25:14;10.90;;;7.90;;
72095;SDS011;59968;51.084;16.748;2022-08-19T07:27:44;11.20;;;7.30;;
72095;SDS011;59968;51.084;16.748;2022-08-19T07:30:14;10.70;;;8.20;;
72095;SDS011;59968;51.084;16.748;2022-08-19T07:32:42;9.50;;;7.80;;
72095;SDS011;59968;51.084;16.748;2022-08-19T07:35:10;11.40;;;8.30;;
72095;SDS011;59968;51.084;16.748;2022-08-19T07:37:37;12.40;;;8.80;;
72095;SDS011;59968;51.084;16.748;2022-08-19T07:40:06;11.40;;;8.90;;
72095;SDS011;59968;51.084;16.748;2022-08-19T07:42:34;13.60;;;8.80;;
72095;SDS011;59968;51.084;16.748;2022-08-19T07:45:02;11.90;;;8.80;;
72095;SDS011;59968;51.084;16.748;2022-08-19T07:47:34;11.00;;;8.20;;
72095;SDS011;59968;51.084;16.748;2022-08-19T07:50:17;10.90;;;8.00;;
72095;SDS011;59968;51.084;16.748;2022-08-19T07:52:46;13.20;;;8.10;;
72095;SDS011;59968;51.084;16.748;2022-08-19T07:55:17;10.50;;;8.40;;
72095;SDS011;59968;51.084;16.748;2022-08-19T07:58:07;10.70;;;7.20;;
72095;SDS011;59968;51.084;16.748;2022-08-19T08:00:34;12.90;;;7.90;;
72095;SDS011;59968;51.084;16.748;2022-08-19T08:03:02;9.10;;;8.10;;
72095;SDS011;59968;51.084;16.748;2022-08-19T08:05:30;9.30;;;6.90;;
72095;SDS011;59968;51.084;16.748;2022-08-19T08:08:16;10.50;;;7.50;;
72095;SDS011;59968;51.084;16.748;2022-08-19T08:11:03;9.20;;;6.80;;
72095;SDS011;59968;51.084;16.748;2022-08-19T08:13:34;9.30;;;6.80;;
72095;SDS011;59968;51.084;16.748;2022-08-19T08:16:02;10.90;;;7.20;;
72095;SDS011;59968;51.084;16.748;2022-08-19T08:18:30;10.00;;;6.70;;
72095;SDS011;59968;51.084;16.748;2022-08-19T08:20:57;11.30;;;6.60;;
72095;SDS011;59968;51.084;16.748;2022-08-19T08:23:25;10.30;;;7.30;;
72095;SDS011;59968;51.084;16.748;2022-08-19T08:25:54;11.40;;;6.80;;
72095;SDS011;59968;51.084;16.748;2022-08-19T08:28:24;12.20;;;7.60;;
72095;SDS011;59968;51.084;16.748;2022-08-19T08:30:56;9.50;;;7.00;;
72095;SDS011;59968;51.084;16.748;2022-08-19T08:33:26;13.10;;;7.40;;
72095;SDS011;59968;51.084;16.748;2022-08-19T08:36:07;10.10;;;7.10;;
72095;SDS011;59968;51.084;16.748;2022-08-19T08:38:35;11.90;;;7.30;;
72095;SDS011;59968;51.084;16.748;2022-08-19T08:43:57;10.00;;;6.60;;
72095;SDS011;59968;51.084;16.748;2022-08-19T08:46:39;9.00;;;6.60;;
72095;SDS011;59968;51.084;16.748;2022-08-19T08:52:23;11.80;;;6.90;;
72095;SDS011;59968;51.084;16.748;2022-08-19T08:55:08;8.40;;;7.10;;
72095;SDS011;59968;51.084;16.748;2022-08-19T08:57:41;8.90;;;6.80;;
72095;SDS011;59968;51.084;16.748;2022-08-19T09:00:26;9.50;;;7.30;;
72095;SDS011;59968;51.084;16.748;2022-08-19T09:02:57;8.60;;;7.20;;
72095;SDS011;59968;51.084;16.748;2022-08-19T09:05:40;9.60;;;6.00;;
72095;SDS011;59968;51.084;16.748;2022-08-19T09:14:37;8.30;;;6.00;;
72095;SDS011;59968;51.084;16.748;2022-08-19T09:17:24;7.70;;;5.40;;
72095;SDS011;59968;51.084;16.748;2022-08-19T09:22:40;7.80;;;5.40;;
72095;SDS011;59968;51.084;16.748;2022-08-19T09:25:21;6.70;;;5.40;;
72095;SDS011;59968;51.084;16.748;2022-08-19T09:27:55;8.30;;;5.90;;
72095;SDS011;59968;51.084;16.748;2022-08-19T09:30:34;7.00;;;5.00;;
72095;SDS011;59968;51.084;16.748;2022-08-19T09:33:06;6.10;;;5.30;;
72095;SDS011;59968;51.084;16.748;2022-08-19T09:35:34;8.00;;;5.30;;
72095;SDS011;59968;51.084;16.748;2022-08-19T09:38:20;7.50;;;5.40;;
72095;SDS011;59968;51.084;16.748;2022-08-19T09:40:48;7.60;;;5.10;;
72095;SDS011;59968;51.084;16.748;2022-08-19T09:43:17;7.40;;;5.40;;
72095;SDS011;59968;51.084;16.748;2022-08-19T09:46:00;6.60;;;5.50;;
72095;SDS011;59968;51.084;16.748;2022-08-19T09:48:28;7.60;;;5.40;;
72095;SDS011;59968;51.084;16.748;2022-08-19T09:50:55;9.80;;;5.70;;
72095;SDS011;59968;51.084;16.748;2022-08-19T09:53:31;6.20;;;5.40;;
72095;SDS011;59968;51.084;16.748;2022-08-19T09:56:00;8.00;;;5.80;;
72095;SDS011;59968;51.084;16.748;2022-08-19T09:58:30;7.60;;;6.00;;
72095;SDS011;59968;51.084;16.748;2022-08-19T10:00:58;7.20;;;5.20;;
72095;SDS011;59968;51.084;16.748;2022-08-19T10:03:28;8.00;;;5.80;;
72095;SDS011;59968;51.084;16.748;2022-08-19T10:05:58;8.30;;;5.80;;
72095;SDS011;59968;51.084;16.748;2022-08-19T10:08:28;10.10;;;6.10;;
72095;SDS011;59968;51.084;16.748;2022-08-19T10:10:58;8.90;;;6.80;;
72095;SDS011;59968;51.084;16.748;2022-08-19T10:13:48;6.70;;;5.50;;
72095;SDS011;59968;51.084;16.748;2022-08-19T10:16:18;7.00;;;5.40;;
72095;SDS011;59968;51.084;16.748;2022-08-19T10:18:55;9.20;;;6.10;;
72095;SDS011;59968;51.084;16.748;2022-08-19T10:21:27;8.40;;;6.80;;
72095;SDS011;59968;51.084;16.748;2022-08-19T10:23:59;7.20;;;6.30;;
72095;SDS011;59968;51.084;16.748;2022-08-19T10:26:32;8.00;;;5.80;;
72095;SDS011;59968;51.084;16.748;2022-08-19T10:29:03;10.00;;;5.90;;
72095;SDS011;59968;51.084;16.748;2022-08-19T10:31:35;9.30;;;5.60;;
72095;SDS011;59968;51.084;16.748;2022-08-19T10:34:24;7.30;;;5.00;;
72095;SDS011;59968;51.084;16.748;2022-08-19T10:36:56;7.40;;;5.60;;
72095;SDS011;59968;51.084;16.748;2022-08-19T10:39:29;8.40;;;5.40;;
72095;SDS011;59968;51.084;16.748;2022-08-19T10:42:06;6.10;;;5.30;;
72095;SDS011;59968;51.084;16.748;2022-08-19T10:44:34;7.10;;;5.30;;
72095;SDS011;59968;51.084;16.748;2022-08-19T10:47:02;8.70;;;5.30;;
72095;SDS011;59968;51.084;16.748;2022-08-19T10:49:44;7.10;;;4.90;;
72095;SDS011;59968;51.084;16.748;2022-08-19T10:52:30;6.50;;;4.90;;
72095;SDS011;59968;51.084;16.748;2022-08-19T10:55:01;6.10;;;4.60;;
72095;SDS011;59968;51.084;16.748;2022-08-19T10:57:48;6.10;;;5.20;;
72095;SDS011;59968;51.084;16.748;2022-08-19T11:00:32;6.20;;;5.40;;
72095;SDS011;59968;51.084;16.748;2022-08-19T11:03:04;7.70;;;4.70;;
72095;SDS011;59968;51.084;16.748;2022-08-19T11:05:32;6.00;;;5.40;;
72095;SDS011;59968;51.084;16.748;2022-08-19T11:08:10;5.60;;;4.50;;
72095;SDS011;59968;51.084;16.748;2022-08-19T11:10:53;6.60;;;4.90;;
72095;SDS011;59968;51.084;16.748;2022-08-19T11:13:25;6.30;;;5.30;;
72095;SDS011;59968;51.084;16.748;2022-08-19T11:16:05;6.00;;;5.40;;
72095;SDS011;59968;51.084;16.748;2022-08-19T11:18:40;5.50;;;4.60;;
72095;SDS011;59968;51.084;16.748;2022-08-19T11:21:19;5.80;;;4.60;;
72095;SDS011;59968;51.084;16.748;2022-08-19T11:24:09;7.30;;;4.20;;
72095;SDS011;59968;51.084;16.748;2022-08-19T11:26:38;5.40;;;4.70;;
72095;SDS011;59968;51.084;16.748;2022-08-19T11:29:09;7.30;;;4.60;;
72095;SDS011;59968;51.084;16.748;2022-08-19T11:31:43;5.10;;;4.50;;
72095;SDS011;59968;51.084;16.748;2022-08-19T11:34:13;6.60;;;4.70;;
72095;SDS011;59968;51.084;16.748;2022-08-19T11:36:43;6.10;;;5.10;;
72095;SDS011;59968;51.084;16.748;2022-08-19T11:39:14;5.20;;;3.80;;
72095;SDS011;59968;51.084;16.748;2022-08-19T11:41:43;5.70;;;4.90;;
72095;SDS011;59968;51.084;16.748;2022-08-19T11:44:12;5.50;;;4.10;;
72095;SDS011;59968;51.084;16.748;2022-08-19T11:46:42;6.20;;;4.40;;
72095;SDS011;59968;51.084;16.748;2022-08-19T11:49:13;6.30;;;4.30;;
72095;SDS011;59968;51.084;16.748;2022-08-19T11:51:43;5.90;;;4.40;;
72095;SDS011;59968;51.084;16.748;2022-08-19T11:54:10;7.20;;;4.50;;
72095;SDS011;59968;51.084;16.748;2022-08-19T11:56:39;5.90;;;4.20;;
72095;SDS011;59968;51.084;16.748;2022-08-19T11:59:07;5.50;;;3.40;;
72095;SDS011;59968;51.084;16.748;2022-08-19T12:01:40;7.30;;;4.30;;
72095;SDS011;59968;51.084;16.748;2022-08-19T12:04:09;4.90;;;3.90;;
72095;SDS011;59968;51.084;16.748;2022-08-19T12:06:38;5.40;;;4.20;;
72095;SDS011;59968;51.084;16.748;2022-08-19T12:09:08;4.90;;;3.40;;
72095;SDS011;59968;51.084;16.748;2022-08-19T12:11:37;5.60;;;3.90;;
72095;SDS011;59968;51.084;16.748;2022-08-19T12:14:06;5.20;;;4.30;;
72095;SDS011;59968;51.084;16.748;2022-08-19T12:16:40;4.90;;;3.90;;
72095;SDS011;59968;51.084;16.748;2022-08-19T12:19:17;4.90;;;4.10;;
72095;SDS011;59968;51.084;16.748;2022-08-19T12:21:50;7.30;;;3.80;;
72095;SDS011;59968;51.084;16.748;2022-08-19T12:24:19;6.30;;;4.20;;
72095;SDS011;59968;51.084;16.748;2022-08-19T12:26:50;4.70;;;4.20;;
72095;SDS011;59968;51.084;16.748;2022-08-19T12:29:29;5.50;;;4.90;;
72095;SDS011;59968;51.084;16.748;2022-08-19T12:31:57;6.90;;;4.90;;
72095;SDS011;59968;51.084;16.748;2022-08-19T12:34:31;5.00;;;4.50;;
72095;SDS011;59968;51.084;16.748;2022-08-19T12:37:01;5.70;;;4.40;;
72095;SDS011;59968;51.084;16.748;2022-08-19T12:39:30;5.90;;;4.90;;
72095;SDS011;59968;51.084;16.748;2022-08-19T12:42:00;6.80;;;4.30;;
72095;SDS011;59968;51.084;16.748;2022-08-19T12:44:27;6.50;;;5.20;;
72095;SDS011;59968;51.084;16.748;2022-08-19T12:46:59;8.40;;;5.50;;
72095;SDS011;59968;51.084;16.748;2022-08-19T12:49:27;6.20;;;4.90;;
72095;SDS011;59968;51.084;16.748;2022-08-19T12:52:15;5.70;;;5.00;;
72095;SDS011;59968;51.084;16.748;2022-08-19T12:54:49;6.30;;;4.40;;
72095;SDS011;59968;51.084;16.748;2022-08-19T12:57:22;5.80;;;4.50;;
72095;SDS011;59968;51.084;16.748;2022-08-19T13:00:04;7.20;;;4.70;;
72095;SDS011;59968;51.084;16.748;2022-08-19T13:02:41;8.60;;;5.10;;
72095;SDS011;59968;51.084;16.748;2022-08-19T13:05:17;6.50;;;4.60;;
72095;SDS011;59968;51.084;16.748;2022-08-19T13:07:49;7.30;;;4.70;;
72095;SDS011;59968;51.084;16.748;2022-08-19T13:10:20;6.10;;;4.80;;
72095;SDS011;59968;51.084;16.748;2022-08-19T13:12:49;6.60;;;5.10;;
72095;SDS011;59968;51.084;16.748;2022-08-19T13:15:18;7.90;;;5.80;;
72095;SDS011;59968;51.084;16.748;2022-08-19T13:17:51;9.80;;;5.40;;
72095;SDS011;59968;51.084;16.748;2022-08-19T13:20:20;8.80;;;5.50;;
72095;SDS011;59968;51.084;16.748;2022-08-19T13:22:48;7.70;;;4.70;;
72095;SDS011;59968;51.084;16.748;2022-08-19T13:25:16;7.20;;;4.70;;
72095;SDS011;59968;51.084;16.748;2022-08-19T13:27:45;8.70;;;5.40;;
72095;SDS011;59968;51.084;16.748;2022-08-19T13:30:14;7.90;;;5.30;;
72095;SDS011;59968;51.084;16.748;2022-08-19T13:33:00;8.10;;;5.40;;
72095;SDS011;59968;51.084;16.748;2022-08-19T13:35:47;6.20;;;5.20;;
72095;SDS011;59968;51.084;16.748;2022-08-19T13:38:20;5.20;;;4.70;;
72095;SDS011;59968;51.084;16.748;2022-08-19T13:40:49;7.20;;;4.70;;
72095;SDS011;59968;51.084;16.748;2022-08-19T13:43:19;6.40;;;4.70;;
72095;SDS011;59968;51.084;16.748;2022-08-19T13:45:53;6.50;;;5.10;;
72095;SDS011;59968;51.084;16.748;2022-08-19T13:48:23;5.30;;;4.50;;
72095;SDS011;59968;51.084;16.748;2022-08-19T13:50:52;6.30;;;4.90;;
72095;SDS011;59968;51.084;16.748;2022-08-19T13:53:20;9.90;;;6.00;;
72095;SDS011;59968;51.084;16.748;2022-08-19T13:55:48;11.10;;;7.90;;
72095;SDS011;59968;51.084;16.748;2022-08-19T13:58:19;13.20;;;8.90;;
72095;SDS011;59968;51.084;16.748;2022-08-19T14:00:48;14.10;;;10.10;;
72095;SDS011;59968;51.084;16.748;2022-08-19T14:03:16;15.60;;;11.20;;
72095;SDS011;59968;51.084;16.748;2022-08-19T14:05:44;16.10;;;10.50;;
72095;SDS011;59968;51.084;16.748;2022-08-19T14:08:13;16.70;;;10.70;;
72095;SDS011;59968;51.084;16.748;2022-08-19T14:10:40;15.90;;;11.10;;
72095;SDS011;59968;51.084;16.748;2022-08-19T14:13:09;16.30;;;10.90;;
72095;SDS011;59968;51.084;16.748;2022-08-19T14:15:36;13.90;;;11.40;;
72095;SDS011;59968;51.084;16.748;2022-08-19T14:18:04;15.60;;;10.40;;
72095;SDS011;59968;51.084;16.748;2022-08-19T14:20:33;12.40;;;8.90;;
72095;SDS011;59968;51.084;16.748;2022-08-19T14:23:01;15.30;;;11.20;;
72095;SDS011;59968;51.084;16.748;2022-08-19T14:25:30;14.80;;;11.50;;
72095;SDS011;59968;51.084;16.748;2022-08-19T14:27:58;16.00;;;11.60;;
72095;SDS011;59968;51.084;16.748;2022-08-19T14:30:31;15.20;;;12.90;;
72095;SDS011;59968;51.084;16.748;2022-08-19T14:33:00;12.00;;;10.00;;
72095;SDS011;59968;51.084;16.748;2022-08-19T14:35:29;14.10;;;11.60;;
72095;SDS011;59968;51.084;16.748;2022-08-19T14:37:59;12.00;;;10.20;;
72095;SDS011;59968;51.084;16.748;2022-08-19T14:40:27;13.10;;;11.30;;
72095;SDS011;59968;51.084;16.748;2022-08-19T14:42:56;13.90;;;11.50;;
72095;SDS011;59968;51.084;16.748;2022-08-19T14:45:31;13.00;;;11.10;;
72095;SDS011;59968;51.084;16.748;2022-08-19T14:48:03;15.10;;;12.80;;
72095;SDS011;59968;51.084;16.748;2022-08-19T14:50:31;15.90;;;12.30;;
72095;SDS011;59968;51.084;16.748;2022-08-19T14:53:08;15.00;;;11.90;;
72095;SDS011;59968;51.084;16.748;2022-08-19T14:55:42;15.00;;;10.80;;
72095;SDS011;59968;51.084;16.748;2022-08-19T14:58:11;13.90;;;10.60;;
72095;SDS011;59968;51.084;16.748;2022-08-19T15:00:58;17.60;;;13.10;;